Time;durP1;ratioP1;P1;durP2;ratioP2;P2;SDS_P1;SDS_P2;PMS_P1;PMS_P2;Temp;Humidity;BMP_temperature;BMP_pressure;BME280_temperature;BME280_humidity;BME280_pressure;Samples;Min_cycle;Max_cycle;Signal;HPM_P1;HPM_P2
2022/12/19 00:00:40;;;;;;;106.88;56.78;;;;;;;-1.12;100.00;101686.97;6203346;23;20091;-86
2022/12/19 00:03:05;;;;;;;109.40;57.60;;;;;;;-1.05;100.00;101683.53;6202562;23;20405;-85
2022/12/19 00:05:35;;;;;;;107.95;58.45;;;;;;;-1.07;100.00;101677.44;6204220;23;20418;-85
2022/12/19 00:08:00;;;;;;;103.15;56.15;;;;;;;-1.13;100.00;101659.09;6204460;23;20017;-86
2022/12/19 00:10:26;;;;;;;109.68;60.10;;;;;;;-1.16;100.00;101655.56;6203257;23;20023;-85
2022/12/19 00:12:51;;;;;;;106.60;58.40;;;;;;;-1.04;100.00;101661.78;6202351;23;20298;-85
2022/12/19 00:15:16;;;;;;;110.70;59.22;;;;;;;-1.04;100.00;101659.19;6201221;23;20386;-85
2022/12/19 00:17:42;;;;;;;113.97;59.55;;;;;;;-1.05;100.00;101639.09;6204438;23;20001;-85
2022/12/19 00:20:07;;;;;;;116.13;59.70;;;;;;;-1.01;100.00;101655.69;6204486;23;20031;-84
2022/12/19 00:22:32;;;;;;;115.40;61.42;;;;;;;-1.03;100.00;101647.00;6204486;23;20115;-85
2022/12/19 00:24:58;;;;;;;116.75;63.22;;;;;;;-0.96;100.00;101651.41;6206322;23;20000;-84
2022/12/19 00:27:23;;;;;;;115.35;60.85;;;;;;;-0.90;100.00;101642.75;6203475;23;20413;-85
2022/12/19 00:29:48;;;;;;;114.82;61.72;;;;;;;-0.91;100.00;101638.38;6206190;23;20009;-85
2022/12/19 00:32:14;;;;;;;120.82;60.70;;;;;;;-0.91;100.00;101639.25;6202147;23;20004;-85
2022/12/19 00:34:39;;;;;;;117.63;61.30;;;;;;;-0.89;100.00;101618.34;6205014;23;20004;-84
2022/12/19 00:37:04;;;;;;;116.90;60.70;;;;;;;-0.87;100.00;101617.50;6206817;23;20091;-84
2022/12/19 00:39:29;;;;;;;118.95;61.58;;;;;;;-0.84;100.00;101624.50;6204236;23;20009;-84
2022/12/19 00:41:55;;;;;;;105.18;59.08;;;;;;;-0.84;100.00;101601.84;6207437;23;20028;-85
2022/12/19 00:44:20;;;;;;;112.80;60.30;;;;;;;-0.76;100.00;101615.84;6209681;23;20418;-84
2022/12/19 00:46:45;;;;;;;110.68;61.28;;;;;;;-0.77;100.00;101629.78;6205693;23;20007;-82
2022/12/19 00:49:11;;;;;;;122.68;59.42;;;;;;;-0.78;100.00;101616.72;6204626;23;20057;-85
2022/12/19 00:51:36;;;;;;;117.55;59.65;;;;;;;-0.83;100.00;101610.59;6204645;23;20149;-85
2022/12/19 00:54:02;;;;;;;111.03;59.47;;;;;;;-0.75;100.00;101601.06;6206008;23;19996;-85
2022/12/19 00:56:30;;;;;;;109.47;58.88;;;;;;;-0.76;100.00;101610.63;6204269;23;20012;-84
2022/12/19 00:58:56;;;;;;;114.97;60.83;;;;;;;-0.78;100.00;101595.81;6205990;23;20322;-83
2022/12/19 01:01:31;;;;;;;118.75;60.10;;;;;;;-0.78;100.00;101598.41;6205824;23;20076;-85
2022/12/19 01:03:58;;;;;;;115.95;59.08;;;;;;;-0.65;100.00;101602.88;6206509;23;20007;-84
2022/12/19 01:06:24;;;;;;;113.45;60.28;;;;;;;-0.68;100.00;101597.59;6205555;23;20019;-84
2022/12/19 01:08:50;;;;;;;112.93;58.33;;;;;;;-0.74;100.00;101597.56;6206088;23;20385;-84
2022/12/19 01:11:15;;;;;;;106.90;58.85;;;;;;;-0.63;100.00;101613.31;6209426;23;20031;-84
2022/12/19 01:13:40;;;;;;;113.82;58.63;;;;;;;-0.63;100.00;101605.47;6216108;23;20084;-83
2022/12/19 01:16:11;;;;;;;107.93;56.97;;;;;;;-0.62;100.00;101602.03;6208463;23;20220;-83
2022/12/19 01:18:37;;;;;;;109.75;57.40;;;;;;;-0.64;100.00;101580.22;6209818;23;20489;-84
2022/12/19 01:21:06;;;;;;;104.72;57.35;;;;;;;-0.58;100.00;101588.97;6216219;23;20338;-84
2022/12/19 01:23:32;;;;;;;110.22;58.60;;;;;;;-0.58;100.00;101586.38;6213487;23;20020;-83
2022/12/19 01:25:58;;;;;;;112.15;58.28;;;;;;;-0.64;100.00;101569.75;6203546;23;20045;-85
2022/12/19 01:28:24;;;;;;;106.82;55.65;;;;;;;-0.57;100.00;101579.41;6202092;23;20008;-84
2022/12/19 01:30:49;;;;;;;104.68;57.08;;;;;;;-0.54;100.00;101575.06;6206081;23;20450;-84
2022/12/19 01:33:16;;;;;;;111.68;58.60;;;;;;;-0.58;100.00;101575.03;6205756;23;20004;-84
2022/12/19 01:35:43;;;;;;;102.55;56.30;;;;;;;-0.60;100.00;101554.09;6208993;23;20023;-85
2022/12/19 01:38:13;;;;;;;104.28;58.95;;;;;;;-0.54;100.00;101568.97;6208322;23;20323;-84
2022/12/19 01:40:38;;;;;;;105.43;56.63;;;;;;;-0.56;100.00;101553.25;6206781;23;20005;-84
2022/12/19 01:43:04;;;;;;;106.38;58.30;;;;;;;-0.51;100.00;101563.72;6206498;23;20004;-84
2022/12/19 01:45:31;;;;;;;111.07;57.97;;;;;;;-0.48;100.00;101570.72;6205054;23;20032;-84
2022/12/19 01:48:17;;;;;;;109.65;58.72;;;;;;;-0.58;100.00;101555.00;6207021;23;20004;-84
2022/12/19 01:50:55;;;;;;;108.63;56.30;;;;;;;-0.50;100.00;101578.59;6205071;23;20004;-84
2022/12/19 01:53:24;;;;;;;108.78;55.03;;;;;;;-0.49;100.00;101567.25;6204735;23;20035;-83
2022/12/19 01:55:49;;;;;;;116.25;58.65;;;;;;;-0.54;100.00;101561.13;6204397;23;20039;-84
2022/12/19 01:58:16;;;;;;;109.25;56.70;;;;;;;-0.48;100.00;101568.13;6205394;23;20011;-84
2022/12/19 02:00:43;;;;;;;111.13;56.63;;;;;;;-0.48;100.00;101562.88;6203778;23;20012;-83
2022/12/19 02:03:24;;;;;;;112.82;56.28;;;;;;;-0.45;100.00;101561.16;6204415;23;20017;-83
2022/12/19 02:05:53;;;;;;;117.30;58.13;;;;;;;-0.41;100.00;101549.00;6207291;23;20469;-84
2022/12/19 02:08:19;;;;;;;118.05;58.65;;;;;;;-0.39;100.00;101544.63;6202490;23;20018;-84
2022/12/19 02:10:45;;;;;;;113.18;56.78;;;;;;;-0.46;100.00;101522.81;6206258;23;20004;-85
2022/12/19 02:13:11;;;;;;;117.97;57.08;;;;;;;-0.38;100.00;101538.53;6206133;23;20012;-84
2022/12/19 02:15:53;;;;;;;109.95;55.72;;;;;;;-0.34;100.00;101542.91;6203840;23;20335;-84
2022/12/19 02:18:27;;;;;;;117.53;57.28;;;;;;;-0.32;100.00;101547.28;6203332;23;20005;-83
2022/12/19 02:21:14;;;;;;;112.75;58.10;;;;;;;-0.29;100.00;101535.97;6204471;23;20103;-83
2022/12/19 02:23:52;;;;;;;118.45;57.75;;;;;;;-0.24;100.00;101529.00;6203522;23;20008;-84
2022/12/19 02:26:48;;;;;;;121.50;57.25;;;;;;;-0.27;100.00;101524.63;6203858;23;20505;-85
2022/12/19 02:29:25;;;;;;;113.30;56.85;;;;;;;-0.17;100.00;101533.38;6203972;23;20040;-85
2022/12/19 02:31:50;;;;;;;108.80;54.40;;;;;;;-0.15;100.00;101518.56;6205317;23;19985;-84
2022/12/19 02:34:45;;;;;;;120.55;57.08;;;;;;;-0.14;100.00;101507.25;6204754;23;20004;-82
2022/12/19 02:37:23;;;;;;;119.10;57.47;;;;;;;-0.09;100.00;101504.63;6203267;23;20009;-84
2022/12/19 02:40:04;;;;;;;114.53;56.50;;;;;;;-0.08;100.00;101491.56;6205222;23;20008;-83
2022/12/19 02:42:34;;;;;;;119.63;56.00;;;;;;;-0.04;100.00;101498.56;6202200;23;20019;-84
2022/12/19 02:45:01;;;;;;;122.47;57.92;;;;;;;-0.06;100.00;101489.81;6203755;23;20015;-84
2022/12/19 02:47:30;;;;;;;109.57;55.97;;;;;;;0.03;100.00;101488.09;6204872;23;20005;-84
2022/12/19 02:49:56;;;;;;;120.15;58.58;;;;;;;0.06;100.00;101482.88;6203993;23;20007;-84
2022/12/19 02:52:21;;;;;;;121.03;58.97;;;;;;;0.09;100.00;101488.13;6199793;23;20005;-83
2022/12/19 02:54:49;;;;;;;122.80;58.35;;;;;;;0.09;100.00;101483.78;6204300;23;20012;-85
2022/12/19 02:57:22;;;;;;;124.38;57.03;;;;;;;0.10;100.00;101471.56;6204003;23;20146;-84
2022/12/19 03:00:03;;;;;;;122.55;57.03;;;;;;;0.13;100.00;101480.28;6207413;23;20012;-83
2022/12/19 03:02:49;;;;;;;121.07;56.17;;;;;;;0.21;100.00;101462.84;6204969;23;20008;-84
2022/12/19 03:05:24;;;;;;;122.85;57.55;;;;;;;0.23;100.00;101462.84;6207613;23;20050;-84
2022/12/19 03:08:07;;;;;;;127.97;56.47;;;;;;;0.12;100.00;101443.63;6204448;23;20004;-84
2022/12/19 03:10:32;;;;;;;125.85;56.03;;;;;;;0.20;100.00;101460.22;6200797;23;20008;-83
2022/12/19 03:13:20;;;;;;;122.15;55.15;;;;;;;0.24;100.00;101456.72;6204716;23;20039;-83
2022/12/19 03:15:46;;;;;;;125.57;56.03;;;;;;;0.27;100.00;101451.50;6204528;23;20430;-83
2022/12/19 03:18:12;;;;;;;130.48;57.25;;;;;;;0.33;100.00;101453.25;6204905;23;20036;-83
2022/12/19 03:21:19;;;;;;;124.97;55.58;;;;;;;0.37;100.00;101468.97;6204395;23;20121;-84
2022/12/19 03:23:46;;;;;;;123.75;55.13;;;;;;;0.38;100.00;101456.78;6204688;23;20011;-84
2022/12/19 03:26:16;;;;;;;122.35;54.85;;;;;;;0.40;100.00;101457.63;6205635;23;20043;-84
2022/12/19 03:28:57;;;;;;;124.90;55.88;;;;;;;0.45;100.00;101454.13;6204192;23;20418;-84
2022/12/19 03:31:26;;;;;;;129.43;56.38;;;;;;;0.46;100.00;101448.03;6202729;23;20480;-85
2022/12/19 03:33:58;;;;;;;126.63;54.55;;;;;;;0.47;100.00;101443.66;6202499;23;20036;-85
2022/12/19 03:36:34;;;;;;;122.30;53.35;;;;;;;0.56;100.00;101453.28;6203159;23;20461;-84
2022/12/19 03:39:04;;;;;;;126.47;51.88;;;;;;;0.63;100.00;101441.94;6205221;23;20008;-85
2022/12/19 03:44:18;;;;;;;123.03;52.08;;;;;;;0.91;100.00;101441.00;6202995;23;20417;-83
2022/12/19 03:46:52;;;;;;;119.47;51.80;;;;;;;0.99;100.00;101435.75;6204583;23;20004;-84
2022/12/19 03:49:17;;;;;;;111.35;51.38;;;;;;;1.10;100.00;101436.59;6203338;23;20008;-85
2022/12/19 03:51:50;;;;;;;121.57;52.20;;;;;;;1.20;100.00;101443.56;6204129;23;20070;-85
2022/12/19 03:54:24;;;;;;;120.43;52.95;;;;;;;1.22;100.00;101446.19;6202442;23;20012;-84
2022/12/19 03:56:59;;;;;;;113.80;49.60;;;;;;;1.43;100.00;101435.63;6205328;23;20024;-85
2022/12/19 03:59:32;;;;;;;115.45;50.70;;;;;;;1.39;100.00;101422.53;6203617;23;20015;-83
2022/12/19 04:01:59;;;;;;;110.55;49.65;;;;;;;1.58;100.00;101446.91;6203384;23;20008;-85
2022/12/19 04:04:26;;;;;;;117.90;49.47;;;;;;;1.59;100.00;101431.19;6203055;23;20078;-85
2022/12/19 04:06:52;;;;;;;114.32;49.33;;;;;;;1.78;100.00;101434.59;6204018;23;20004;-85
2022/12/19 04:09:21;;;;;;;116.32;47.85;;;;;;;1.79;100.00;101431.06;6203235;23;20011;-85
2022/12/19 04:11:51;;;;;;;103.28;47.50;;;;;;;1.83;100.00;101430.19;6204418;23;20001;-85
2022/12/19 04:14:22;;;;;;;106.40;46.90;;;;;;;1.86;100.00;101435.41;6203649;23;20012;-85
2022/12/19 04:16:56;;;;;;;98.25;46.22;;;;;;;1.95;100.00;101424.00;6206165;23;20062;-84
2022/12/19 04:19:35;;;;;;;96.25;45.58;;;;;;;2.05;100.00;101428.31;6203973;23;20009;-84
2022/12/19 04:22:29;;;;;;;98.50;45.05;;;;;;;2.22;100.00;101422.94;6204914;23;20009;-84
2022/12/19 04:24:58;;;;;;;101.05;47.15;;;;;;;2.32;100.00;101423.75;6206521;23;20005;-85
2022/12/19 04:27:26;;;;;;;102.00;46.85;;;;;;;2.32;100.00;101423.75;6205299;23;20009;-85
2022/12/19 04:29:56;;;;;;;99.50;45.50;;;;;;;2.30;100.00;101414.97;6204439;23;20079;-84
2022/12/19 04:32:23;;;;;;;100.03;45.38;;;;;;;2.35;100.00;101416.72;6204667;23;20008;-85
2022/12/19 04:34:49;;;;;;;95.95;42.85;;;;;;;2.43;100.00;101416.66;6206550;23;20008;-85
2022/12/19 04:37:14;;;;;;;98.35;44.85;;;;;;;2.43;100.00;101417.53;6206268;23;20067;-84
2022/12/19 04:39:39;;;;;;;85.18;42.70;;;;;;;2.53;100.00;101414.81;6206045;23;20426;-85
2022/12/19 04:42:05;;;;;;;96.43;43.78;;;;;;;2.55;100.00;101416.56;6206033;23;20020;-84
2022/12/19 04:44:30;;;;;;;94.28;42.78;;;;;;;2.63;100.00;101416.47;6207326;23;20487;-84
2022/12/19 04:46:56;;;;;;;97.15;43.78;;;;;;;2.49;100.00;101401.69;6208170;23;20363;-85
2022/12/19 04:49:21;;;;;;;91.88;42.30;;;;;;;2.55;100.00;101407.78;6210402;23;20004;-83
2022/12/19 04:51:46;;;;;;;79.32;40.80;;;;;;;2.68;100.00;101405.03;6210791;23;19996;-86
2022/12/19 04:54:12;;;;;;;86.00;39.78;;;;;;;2.72;100.00;101406.75;6211496;23;20004;-86
2022/12/19 04:56:37;;;;;;;80.78;40.22;;;;;;;2.80;100.00;101393.53;6210495;23;20001;-86
2022/12/19 04:59:02;;;;;;;82.57;40.60;;;;;;;2.87;100.00;101400.47;6214117;23;20083;-87
2022/12/19 05:01:27;;;;;;;92.90;41.40;;;;;;;2.80;100.00;101401.44;6208900;23;20021;-87
2022/12/19 05:03:53;;;;;;;85.25;40.53;;;;;;;2.89;100.00;101406.59;6209892;23;20058;-87
2022/12/19 05:06:18;;;;;;;84.32;38.33;;;;;;;2.90;100.00;101396.94;6206741;23;20013;-85
2022/12/19 05:08:44;;;;;;;82.13;39.42;;;;;;;2.91;100.00;101404.78;6204636;23;20430;-86
2022/12/19 05:11:13;;;;;;;78.50;39.78;;;;;;;2.98;100.00;101405.63;6205943;23;20389;-86
2022/12/19 05:13:39;;;;;;;75.88;37.70;;;;;;;3.15;100.00;101397.53;6206301;23;20445;-86
2022/12/19 05:16:07;;;;;;;86.50;39.88;;;;;;;3.04;100.00;101368.72;6207640;23;20075;-86
2022/12/19 05:18:33;;;;;;;75.13;36.58;;;;;;;3.16;100.00;101389.63;6206755;23;20008;-86
2022/12/19 05:20:59;;;;;;;70.97;37.28;;;;;;;3.17;100.00;101359.78;6217755;23;20012;-86
2022/12/19 05:23:24;;;;;;;69.45;37.50;;;;;;;3.34;100.00;101364.84;6218892;23;20005;-86
2022/12/19 05:25:50;;;;;;;69.40;35.42;;;;;;;3.42;100.00;101373.50;6221575;23;20011;-86
2022/12/19 05:28:16;;;;;;;72.03;36.20;;;;;;;3.38;100.00;101374.44;6209293;23;20055;-86
2022/12/19 05:30:42;;;;;;;63.70;35.38;;;;;;;3.42;100.00;101373.50;6206301;23;20000;-85
2022/12/19 05:33:08;;;;;;;59.78;33.20;;;;;;;3.51;100.00;101364.63;6206794;23;20011;-86
2022/12/19 05:35:34;;;;;;;62.67;34.13;;;;;;;3.66;100.00;101388.13;6206242;23;20411;-86
2022/12/19 05:38:00;;;;;;;64.88;34.17;;;;;;;3.67;100.00;101366.16;6207250;23;20099;-85
2022/12/19 05:40:25;;;;;;;62.10;33.50;;;;;;;3.70;100.00;101374.03;6203491;23;20259;-86
2022/12/19 05:42:50;;;;;;;60.00;33.10;;;;;;;3.73;100.00;101368.72;6207794;23;19988;-86
2022/12/19 05:45:16;;;;;;;55.22;31.80;;;;;;;3.78;100.00;101373.03;6206661;23;20001;-87
2022/12/19 05:47:45;;;;;;;62.25;32.28;;;;;;;3.80;100.00;101366.84;6204089;23;20005;-85
2022/12/19 05:50:11;;;;;;;55.83;31.08;;;;;;;3.95;100.00;101366.63;6205903;23;20108;-86
2022/12/19 05:52:36;;;;;;;51.10;30.25;;;;;;;3.89;100.00;101363.25;6205377;23;20005;-85
2022/12/19 05:55:02;;;;;;;52.22;29.75;;;;;;;4.00;100.00;101383.22;6208074;23;20007;-85
2022/12/19 05:57:28;;;;;;;53.80;30.30;;;;;;;3.90;100.00;101368.47;6205748;23;20011;-86
2022/12/19 05:59:53;;;;;;;53.20;30.00;;;;;;;4.02;100.00;101374.44;6205872;23;20019;-85
2022/12/19 06:02:18;;;;;;;50.67;28.73;;;;;;;3.95;100.00;101376.28;6203936;23;20016;-85
2022/12/19 06:04:44;;;;;;;49.60;28.95;;;;;;;4.00;100.00;101372.69;6204932;23;20000;-85
2022/12/19 06:07:09;;;;;;;49.25;28.63;;;;;;;4.10;100.00;101386.63;6206445;23;20067;-86
2022/12/19 06:09:35;;;;;;;48.55;28.55;;;;;;;4.08;100.00;101390.16;6204480;23;20594;-85
2022/12/19 06:12:00;;;;;;;50.13;28.10;;;;;;;4.04;100.00;101383.19;6206248;23;20004;-85
2022/12/19 06:14:25;;;;;;;47.15;27.30;;;;;;;3.97;100.00;101385.03;6203199;23;20278;-86
2022/12/19 06:16:50;;;;;;;45.67;26.80;;;;;;;4.15;100.00;101389.16;6204202;23;20096;-86
2022/12/19 06:19:18;;;;;;;44.33;27.10;;;;;;;4.18;100.00;101386.47;6204178;23;20670;-85
2022/12/19 06:21:44;;;;;;;41.78;25.63;;;;;;;4.18;100.00;101378.56;6204404;23;20813;-87
2022/12/19 06:24:09;;;;;;;40.90;25.75;;;;;;;4.23;100.00;101393.41;6205156;23;20001;-84
2022/12/19 06:26:35;;;;;;;44.90;26.48;;;;;;;4.27;100.00;101386.34;6203445;23;20016;-85
2022/12/19 06:29:00;;;;;;;42.75;26.00;;;;;;;4.33;100.00;101398.53;6205733;23;20015;-86
2022/12/19 06:31:26;;;;;;;42.90;24.48;;;;;;;4.32;100.00;101394.16;6203298;23;20004;-86
2022/12/19 06:33:53;;;;;;;40.60;24.63;;;;;;;4.35;100.00;101387.09;6206263;23;20081;-86
2022/12/19 06:36:21;;;;;;;39.80;24.13;;;;;;;4.39;100.00;101396.69;6202542;23;20012;-86
2022/12/19 06:38:47;;;;;;;38.90;24.15;;;;;;;4.37;100.00;101397.59;6206794;23;20011;-86
2022/12/19 06:44:03;;;;;;;33.90;23.08;;;;;;;4.44;100.00;101408.00;6209828;23;20084;-85
2022/12/19 06:46:28;;;;;;;39.63;24.33;;;;;;;4.37;100.00;101401.09;6208773;23;20014;-85
2022/12/19 06:48:54;;;;;;;38.33;23.27;;;;;;;4.49;100.00;101403.53;6206197;23;20334;-85
2022/12/19 06:51:20;;;;;;;38.53;23.83;;;;;;;4.42;100.00;101396.59;6203220;23;20437;-84
2022/12/19 06:53:45;;;;;;;32.88;22.08;;;;;;;4.46;100.00;101400.94;6204301;23;20005;-84
2022/12/19 06:56:13;;;;;;;35.40;22.20;;;;;;;4.47;100.00;101413.25;6206742;23;20012;-85
2022/12/19 06:58:38;;;;;;;37.85;22.95;;;;;;;4.44;100.00;101413.28;6205554;23;20000;-85
2022/12/19 07:01:03;;;;;;;35.22;23.15;;;;;;;4.48;100.00;101401.81;6203648;23;20031;-86
2022/12/19 07:03:40;;;;;;;35.33;23.00;;;;;;;4.48;100.00;101395.66;6202925;23;20062;-86
2022/12/19 07:06:06;;;;;;;34.75;22.38;;;;;;;4.49;100.00;101392.13;6204237;23;20058;-86
2022/12/19 07:08:31;;;;;;;33.75;21.77;;;;;;;4.52;100.00;101394.72;6206349;23;20433;-85
2022/12/19 07:10:57;;;;;;;33.75;22.38;;;;;;;4.55;100.00;101401.69;6203810;23;20454;-84
2022/12/19 07:13:22;;;;;;;31.98;21.63;;;;;;;4.57;100.00;101400.78;6202806;23;20011;-84
2022/12/19 07:15:49;;;;;;;32.70;21.75;;;;;;;4.55;100.00;101399.03;6201629;23;20544;-84
2022/12/19 07:18:15;;;;;;;33.78;21.65;;;;;;;4.54;100.00;101389.41;6202687;23;20015;-85
2022/12/19 07:20:41;;;;;;;31.90;20.92;;;;;;;4.58;100.00;101410.41;6202861;23;20000;-84
2022/12/19 07:23:09;;;;;;;31.25;21.38;;;;;;;4.58;100.00;101405.13;6203205;23;20008;-84
2022/12/19 07:25:36;;;;;;;33.60;21.88;;;;;;;4.55;100.00;101392.00;6202741;23;20016;-84
2022/12/19 07:28:02;;;;;;;33.03;21.33;;;;;;;4.64;100.00;101409.44;6202736;23;20012;-84
2022/12/19 07:30:27;;;;;;;31.83;21.30;;;;;;;4.60;100.00;101402.47;6200245;23;20000;-86
2022/12/19 07:32:54;;;;;;;28.73;20.75;;;;;;;4.61;100.00;101404.22;6203621;23;20063;-85
2022/12/19 07:35:23;;;;;;;27.92;20.27;;;;;;;4.65;100.00;101411.19;6201307;23;20012;-82
2022/12/19 07:37:49;;;;;;;31.52;21.33;;;;;;;4.58;100.00;101401.63;6199011;23;20047;-82
2022/12/19 07:40:14;;;;;;;29.48;20.02;;;;;;;4.61;100.00;101402.47;6199650;23;20028;-81
2022/12/19 07:42:40;;;;;;;29.10;20.13;;;;;;;4.65;100.00;101408.56;6201389;23;20397;-81
2022/12/19 07:45:06;;;;;;;30.35;20.70;;;;;;;4.65;100.00;101411.19;6201646;23;20004;-80
2022/12/19 07:47:32;;;;;;;27.42;20.15;;;;;;;4.63;100.00;101405.91;6205191;23;20012;-82
2022/12/19 07:49:58;;;;;;;27.38;19.05;;;;;;;4.60;100.00;101406.00;6204332;23;20008;-81
2022/12/19 07:52:23;;;;;;;27.52;19.70;;;;;;;4.68;100.00;101408.47;6200530;23;20018;-80
2022/12/19 07:54:48;;;;;;;27.73;19.38;;;;;;;4.64;100.00;101412.06;6200427;23;19997;-82
2022/12/19 07:57:13;;;;;;;27.60;19.42;;;;;;;4.66;100.00;101410.28;6199985;23;20005;-82
2022/12/19 07:59:39;;;;;;;28.85;17.77;;;;;;;4.62;100.00;101425.28;6202752;23;20533;-81
2022/12/19 08:02:04;;;;;;;24.55;18.38;;;;;;;4.62;100.00;101416.50;6205767;23;20009;-81
2022/12/19 08:04:29;;;;;;;23.73;18.08;;;;;;;4.74;100.00;101425.06;6203695;23;20353;-81
2022/12/19 08:06:55;;;;;;;25.50;18.73;;;;;;;4.82;100.00;101440.78;6205609;23;20008;-81
2022/12/19 08:09:20;;;;;;;25.90;19.42;;;;;;;4.73;100.00;101425.97;6202748;23;20044;-83
2022/12/19 08:11:45;;;;;;;27.08;18.10;;;;;;;4.83;100.00;101439.88;6206135;23;20000;-82
2022/12/19 08:14:11;;;;;;;25.30;17.90;;;;;;;4.86;100.00;101447.72;6203526;23;20024;-81
2022/12/19 08:16:36;;;;;;;26.40;18.00;;;;;;;4.74;100.00;101426.84;6201355;23;20008;-80
2022/12/19 08:19:02;;;;;;;25.05;17.02;;;;;;;4.80;100.00;101439.91;6204477;23;20062;-81
2022/12/19 08:21:28;;;;;;;22.33;16.48;;;;;;;4.87;100.00;101443.31;6203610;23;20013;-81
2022/12/19 08:23:53;;;;;;;23.40;16.58;;;;;;;4.85;100.00;101437.19;6205911;23;20087;-81
2022/12/19 08:26:23;;;;;;;24.27;17.02;;;;;;;4.85;100.00;101431.91;6203559;23;20455;-80
2022/12/19 08:28:51;;;;;;;22.63;16.33;;;;;;;4.87;100.00;101435.41;6205966;23;20278;-81
2022/12/19 08:31:17;;;;;;;20.35;15.82;;;;;;;4.79;100.00;101430.25;6204800;23;20010;-80
2022/12/19 08:33:43;;;;;;;19.52;15.52;;;;;;;4.90;100.00;101440.63;6200549;23;20015;-81
2022/12/19 08:36:11;;;;;;;22.30;16.17;;;;;;;4.94;100.00;101440.56;6204229;23;20389;-80
2022/12/19 08:38:40;;;;;;;20.25;14.93;;;;;;;4.94;100.00;101443.19;6203934;23;20005;-81
2022/12/19 08:41:06;;;;;;;19.63;14.68;;;;;;;4.94;100.00;101444.97;6208310;23;20015;-81
2022/12/19 08:43:31;;;;;;;20.73;14.90;;;;;;;4.96;100.00;101449.28;6208785;23;20008;-80
2022/12/19 08:45:57;;;;;;;19.67;15.27;;;;;;;4.98;100.00;101444.88;6207099;23;20005;-82
2022/12/19 08:48:23;;;;;;;19.92;15.40;;;;;;;5.01;100.00;101436.00;6206310;23;20001;-81
2022/12/19 08:50:56;;;;;;;17.27;14.52;;;;;;;5.08;100.00;101431.50;6209780;23;20087;-82
2022/12/19 08:53:23;;;;;;;20.50;15.35;;;;;;;5.12;100.00;101438.47;6207944;23;20028;-81
2022/12/19 08:55:59;;;;;;;19.27;14.60;;;;;;;5.15;100.00;101433.16;6205713;23;20088;-80
2022/12/19 08:58:27;;;;;;;19.77;14.82;;;;;;;5.17;100.00;101441.88;6201094;23;20268;-81
2022/12/19 09:00:52;;;;;;;18.33;14.15;;;;;;;5.08;100.00;101442.06;6204568;23;20383;-82
2022/12/19 09:03:19;;;;;;;18.00;14.07;;;;;;;5.04;100.00;101427.19;6202391;23;20009;-81
2022/12/19 09:05:44;;;;;;;18.02;13.57;;;;;;;5.19;100.00;101443.59;6205400;23;20012;-82
2022/12/19 09:08:10;;;;;;;17.48;13.20;;;;;;;5.22;100.00;101440.91;6205273;23;20008;-81
2022/12/19 09:10:36;;;;;;;16.95;13.73;;;;;;;5.25;100.00;101446.13;6202085;23;20083;-79
2022/12/19 09:13:03;;;;;;;18.25;13.80;;;;;;;5.28;100.00;101454.88;6207238;23;20008;-81
2022/12/19 09:15:29;;;;;;;15.38;12.63;;;;;;;5.32;100.00;101457.44;6210700;23;20170;-81
2022/12/19 09:17:54;;;;;;;18.40;13.55;;;;;;;5.36;100.00;101467.03;6209985;23;20482;-81
2022/12/19 09:20:20;;;;;;;16.17;13.10;;;;;;;5.32;100.00;101451.28;6208121;23;20477;-81
2022/12/19 09:22:45;;;;;;;15.35;12.73;;;;;;;5.40;100.00;101438.81;6204357;23;20004;-80
2022/12/19 09:25:11;;;;;;;16.45;12.95;;;;;;;5.40;100.00;101442.31;6203103;23;19997;-81
2022/12/19 09:27:36;;;;;;;16.98;13.00;;;;;;;5.38;100.00;101430.03;6203331;23;20004;-81
2022/12/19 09:30:01;;;;;;;16.45;13.38;;;;;;;5.53;100.00;101445.59;6204884;23;20004;-80
2022/12/19 09:32:27;;;;;;;16.75;13.18;;;;;;;5.53;100.00;101437.66;6201447;23;20092;-80
2022/12/19 09:34:52;;;;;;;17.77;12.85;;;;;;;5.52;100.00;101464.06;6204335;23;20426;-80
2022/12/19 09:37:17;;;;;;;15.32;12.73;;;;;;;5.57;100.00;101463.09;6203452;23;20004;-81
2022/12/19 09:39:46;;;;;;;16.55;12.40;;;;;;;5.60;100.00;101448.94;6201974;23;20027;-81
2022/12/19 09:42:34;;;;;;;16.58;12.48;;;;;;;5.61;100.00;101458.63;6203720;23;20446;-81
2022/12/19 09:45:21;;;;;;;15.20;12.88;;;;;;;5.62;100.00;101450.66;6205565;23;20075;-80
2022/12/19 09:47:47;;;;;;;17.30;12.18;;;;;;;5.61;100.00;101446.28;6204210;23;20023;-80
2022/12/19 09:50:31;;;;;;;17.45;12.63;;;;;;;5.73;100.00;101458.38;6201330;23;20043;-80
2022/12/19 09:53:01;;;;;;;;;;;;;;;5.72;100.00;101462.75;6204174;23;20012;-80
2022/12/19 09:55:36;;;;;;;14.10;11.77;;;;;;;5.72;100.00;101449.56;6202390;23;19908;-80
2022/12/19 09:58:22;;;;;;;15.85;12.07;;;;;;;5.81;100.00;101461.72;6201855;23;20027;-80
2022/12/19 10:00:53;;;;;;;12.10;10.43;;;;;;;5.83;100.00;101451.97;6203884;23;20138;-80
2022/12/19 10:03:29;;;;;;;14.27;10.80;;;;;;;5.87;100.00;101463.34;6199193;23;20600;-80
2022/12/19 10:06:01;;;;;;;11.45;10.23;;;;;;;5.89;100.00;101478.25;6204964;23;20088;-82
2022/12/19 10:08:30;;;;;;;11.90;9.98;;;;;;;5.90;100.00;101472.09;6200664;23;20724;-80
2022/12/19 10:11:05;;;;;;;14.63;10.65;;;;;;;5.90;100.00;101469.44;6203663;23;20008;-80
2022/12/19 10:13:45;;;;;;;12.00;10.10;;;;;;;5.96;100.00;101476.41;6203937;23;20394;-81
2022/12/19 10:16:50;;;;;;;15.13;10.35;;;;;;;5.93;100.00;101464.13;6205624;23;20499;-81
2022/12/19 10:19:42;;;;;;;11.70;9.52;;;;;;;5.89;100.00;101461.53;6203225;23;20074;-81
2022/12/19 10:22:13;;;;;;;10.45;9.30;;;;;;;5.93;100.00;101466.75;6202205;23;20004;-81
2022/12/19 10:25:19;;;;;;;10.52;9.43;;;;;;;5.90;100.00;101466.81;6200758;23;20035;-80
2022/12/19 10:27:55;;;;;;;10.73;9.63;;;;;;;5.91;100.00;101457.09;6202367;23;20043;-79
2022/12/19 10:30:22;;;;;;;12.35;9.05;;;;;;;5.89;100.00;101451.84;6201894;23;20353;-79
2022/12/19 10:32:53;;;;;;;10.05;8.45;;;;;;;5.97;100.00;101457.00;6202997;23;20286;-81
2022/12/19 10:35:19;;;;;;;11.68;9.13;;;;;;;5.95;100.00;101441.19;6201719;23;20034;-80
2022/12/19 10:38:10;;;;;;;11.25;8.82;;;;;;;6.03;100.00;101464.81;6201733;23;20446;-80
2022/12/19 10:41:03;;;;;;;9.45;8.45;;;;;;;6.08;100.00;101462.06;6182795;23;20039;-81
2022/12/19 10:43:47;;;;;;;8.60;7.53;;;;;;;6.11;100.00;101464.63;6202266;23;20008;-81
2022/12/19 10:46:18;;;;;;;10.02;8.48;;;;;;;6.14;100.00;101452.19;6201845;23;20054;-81
2022/12/19 10:48:44;;;;;;;10.52;8.80;;;;;;;6.15;100.00;101458.38;6201897;23;20000;-80
2022/12/19 10:51:12;;;;;;;11.15;8.38;;;;;;;6.11;100.00;101465.50;6203429;23;20015;-82
2022/12/19 10:53:38;;;;;;;9.07;8.02;;;;;;;6.14;100.00;101477.75;6202384;23;20405;-82
2022/12/19 10:56:21;;;;;;;9.43;8.52;;;;;;;6.10;100.00;101479.59;6202968;23;20004;-81
2022/12/19 10:58:49;;;;;;;;;;;;;;;6.08;100.00;101462.06;6203356;23;20008;-82
2022/12/19 11:01:26;;;;;;;10.27;8.90;;;;;;;6.09;100.00;101456.72;6199288;23;20003;-82
2022/12/19 11:04:38;;;;;;;12.38;9.57;;;;;;;6.10;100.00;101466.38;6204755;23;20007;-82
2022/12/19 11:07:10;;;;;;;11.82;10.25;;;;;;;6.08;100.00;101454.13;6197370;23;20009;-83
2022/12/19 11:09:38;;;;;;;11.07;9.98;;;;;;;6.07;100.00;101460.31;6203250;23;20012;-83
2022/12/19 11:12:06;;;;;;;10.80;9.45;;;;;;;6.06;100.00;101453.28;6204879;23;20000;-80
2022/12/19 11:14:35;;;;;;;13.32;10.15;;;;;;;5.97;100.00;101447.28;6202002;23;20047;-77
2022/12/19 11:17:00;;;;;;;11.32;9.48;;;;;;;5.99;100.00;101439.34;6202331;23;20050;-81
2022/12/19 11:19:26;;;;;;;11.60;9.25;;;;;;;6.02;100.00;101443.69;6199135;23;20009;-82
2022/12/19 11:21:52;;;;;;;13.48;10.25;;;;;;;6.03;100.00;101432.22;6202109;23;20264;-82